createdAt,value
2023-02-11T00:05:03.856Z,5.39
2023-02-11T00:10:09.537Z,5.39
2023-02-11T00:15:11.407Z,5.37
2023-02-11T00:20:12.869Z,5.32
2023-02-11T00:25:14.395Z,5.34
2023-02-11T00:30:16.542Z,5.30
2023-02-11T00:35:18.205Z,5.36
2023-02-11T00:40:19.794Z,5.31
2023-02-11T00:45:21.402Z,5.32
2023-02-11T00:50:23.455Z,5.38
2023-02-11T00:55:25.050Z,5.37
2023-02-11T01:00:27.483Z,5.32
2023-02-11T01:05:29.056Z,5.34
2023-02-11T01:10:30.725Z,5.34
2023-02-11T01:15:33.346Z,5.35
2023-02-11T01:20:34.960Z,5.26
2023-02-11T01:25:36.508Z,5.20
2023-02-11T01:30:37.930Z,5.11
2023-02-11T01:35:40.351Z,5.07
2023-02-11T01:40:47.680Z,5.02
2023-02-11T01:45:49.506Z,5.02
2023-02-11T01:50:57.085Z,5.03
2023-02-11T01:56:17.961Z,5.03
2023-02-11T02:01:24.382Z,5.04
2023-02-11T02:06:46.223Z,5.00
2023-02-11T02:11:47.800Z,5.05
2023-02-11T02:16:49.230Z,5.01
2023-02-11T02:21:57.968Z,5.03
2023-02-11T02:27:15.849Z,4.99
2023-02-11T02:32:47.570Z,4.92
2023-02-11T02:38:10.720Z,4.95
2023-02-11T02:43:13.790Z,4.91
2023-02-11T02:48:33.202Z,4.86
2023-02-11T02:54:00.621Z,4.85
2023-02-11T02:59:09.759Z,4.88
2023-02-11T03:04:43.558Z,4.82
2023-02-11T03:09:59.592Z,4.82
2023-02-11T03:15:03.884Z,4.82
2023-02-11T03:20:09.776Z,4.77
2023-02-11T03:25:11.385Z,4.79
2023-02-11T03:30:26.727Z,4.81
2023-02-11T03:35:33.242Z,4.82
2023-02-11T03:40:40.047Z,4.81
2023-02-11T03:45:41.402Z,4.84
2023-02-11T03:50:45.429Z,4.83
2023-02-11T03:55:49.278Z,4.84
2023-02-11T04:00:51.423Z,4.83
2023-02-11T04:05:53.054Z,4.83
2023-02-11T04:10:54.463Z,4.87
2023-02-11T04:15:55.962Z,4.90
2023-02-11T04:20:57.506Z,4.91
2023-02-11T04:25:59.106Z,4.91
2023-02-11T04:31:00.781Z,4.91
2023-02-11T04:36:02.291Z,4.94
2023-02-11T04:41:03.853Z,5.00
2023-02-11T04:46:05.490Z,5.00
2023-02-11T04:51:06.940Z,4.97
2023-02-11T04:56:08.461Z,5.00
2023-02-11T05:01:12.675Z,4.98
2023-02-11T05:06:14.410Z,4.97
2023-02-11T05:11:21.492Z,4.98
2023-02-11T05:16:23.114Z,4.98
2023-02-11T05:21:25.135Z,4.98
2023-02-11T05:26:26.744Z,4.95
2023-02-11T05:31:28.275Z,4.95
2023-02-11T05:36:33.294Z,4.95
2023-02-11T05:41:34.908Z,4.94
2023-02-11T05:46:36.448Z,4.94
2023-02-11T05:51:38.138Z,4.97
2023-02-11T05:56:39.600Z,4.95
2023-02-11T06:01:41.340Z,4.92
2023-02-11T06:06:42.925Z,4.93
2023-02-11T06:11:44.341Z,4.94
2023-02-11T06:16:45.811Z,4.94
2023-02-11T06:21:47.266Z,4.94
2023-02-11T06:26:48.760Z,4.94
2023-02-11T06:31:50.381Z,4.93
2023-02-11T06:36:51.854Z,4.93
2023-02-11T06:41:53.282Z,4.96
2023-02-11T06:46:54.829Z,4.97
2023-02-11T06:51:56.281Z,4.97
2023-02-11T06:56:57.966Z,4.98
2023-02-11T07:01:59.486Z,4.95
2023-02-11T07:07:01.020Z,4.97
2023-02-11T07:12:02.504Z,5.01
2023-02-11T07:17:07.338Z,5.00
2023-02-11T07:22:08.769Z,4.99
2023-02-11T07:27:10.466Z,5.00
2023-02-11T07:32:11.982Z,5.00
2023-02-11T07:37:13.477Z,5.03
2023-02-11T07:42:14.947Z,5.05
2023-02-11T07:47:16.391Z,5.05
2023-02-11T07:52:18.047Z,5.09
2023-02-11T07:57:19.520Z,5.08
2023-02-11T08:02:21.001Z,5.11
2023-02-11T08:07:22.732Z,5.14
2023-02-11T08:12:24.178Z,5.16
2023-02-11T08:17:26.432Z,5.20
2023-02-11T08:22:28.029Z,5.21
2023-02-11T08:27:29.476Z,5.28
2023-02-11T08:32:31.079Z,5.29
2023-02-11T08:37:33.164Z,5.40
2023-02-11T08:42:34.759Z,5.42
2023-02-11T08:47:37.310Z,5.51
2023-02-11T08:52:38.773Z,5.59
2023-02-11T08:57:40.217Z,5.67
2023-02-11T09:02:41.941Z,5.72
2023-02-11T09:07:43.511Z,5.80
2023-02-11T09:12:44.958Z,5.85
2023-02-11T09:17:46.445Z,5.92
2023-02-11T09:22:48.398Z,6.01
2023-02-11T09:27:51.317Z,6.05
2023-02-11T09:32:52.963Z,6.13
2023-02-11T09:37:54.487Z,6.22
2023-02-11T09:43:11.865Z,6.27
2023-02-11T09:48:17.830Z,6.34
2023-02-11T09:53:24.242Z,6.42
2023-02-11T09:58:34.077Z,6.46
2023-02-11T10:03:41.517Z,6.54
2023-02-11T10:08:58.814Z,6.56
2023-02-11T10:14:29.688Z,6.63
2023-02-11T10:19:47.225Z,6.69
2023-02-11T10:24:53.564Z,6.86
2023-02-11T10:30:36.546Z,6.85
2023-02-11T10:35:38.591Z,6.97
2023-02-11T10:40:40.747Z,6.97
2023-02-11T10:45:43.772Z,7.11
2023-02-11T10:50:47.339Z,7.24
2023-02-11T10:55:58.620Z,7.48
2023-02-11T11:01:01.001Z,7.61
2023-02-11T11:06:06.982Z,7.76
2023-02-11T11:11:11.830Z,7.68
2023-02-11T11:16:13.406Z,7.83
2023-02-11T11:21:34.655Z,7.73
2023-02-11T11:26:46.848Z,7.82
2023-02-11T11:32:04.796Z,7.81
2023-02-11T11:37:33.058Z,8.07
2023-02-11T11:42:37.208Z,8.14
2023-02-11T11:48:00.486Z,8.13
2023-02-11T11:53:26.142Z,8.19
2023-02-11T11:58:29.087Z,8.47
2023-02-11T12:03:42.909Z,8.71
2023-02-11T12:08:52.069Z,8.92
2023-02-11T12:14:00.103Z,8.94
2023-02-11T12:19:22.307Z,9.11
2023-02-11T12:24:38.801Z,9.05
2023-02-11T12:30:15.684Z,9.57
2023-02-11T12:35:23.080Z,9.61
2023-02-11T12:40:50.590Z,9.59
2023-02-11T12:46:14.607Z,9.64
2023-02-11T12:51:32.114Z,9.65
2023-02-11T12:56:45.117Z,9.77
2023-02-11T13:01:49.655Z,9.49
2023-02-11T13:06:57.541Z,9.44
2023-02-11T13:12:23.474Z,9.49
2023-02-11T13:17:56.697Z,9.26
2023-02-11T13:23:19.143Z,9.17
2023-02-11T13:28:34.323Z,9.03
2023-02-11T13:33:43.031Z,9.11
2023-02-11T13:39:05.829Z,8.99
2023-02-11T13:44:10.071Z,9.06
2023-02-11T13:49:20.613Z,9.14
2023-02-11T13:54:31.099Z,9.29
2023-02-11T13:59:33.179Z,9.35
2023-02-11T14:04:53.211Z,9.20
2023-02-11T14:09:57.072Z,9.47
2023-02-11T14:15:25.192Z,9.50
2023-02-11T14:20:42.014Z,9.37
2023-02-11T14:25:45.453Z,9.49
2023-02-11T14:31:00.014Z,9.39
2023-02-11T14:36:18.332Z,9.23
2023-02-11T14:41:24.263Z,9.11
2023-02-11T14:46:35.704Z,9.06
2023-02-11T14:51:40.663Z,9.04
2023-02-11T14:56:42.491Z,9.08
2023-02-11T15:01:48.763Z,9.13
2023-02-11T15:06:50.640Z,9.02
2023-02-11T15:11:52.786Z,9.05
2023-02-11T15:16:58.098Z,8.98
2023-02-11T15:21:59.702Z,8.99
2023-02-11T15:27:15.488Z,8.87
2023-02-11T15:32:19.796Z,8.90
2023-02-11T15:37:29.737Z,8.89
2023-02-11T15:42:40.992Z,8.86
2023-02-11T15:47:51.475Z,8.78
2023-02-11T15:52:55.279Z,8.81
2023-02-11T15:58:00.568Z,8.68
2023-02-11T16:03:02.285Z,8.69
2023-02-11T16:08:35.425Z,8.61
2023-02-11T16:13:47.254Z,8.51
2023-02-11T16:19:04.860Z,8.42
2023-02-11T16:24:15.798Z,8.35
2023-02-11T16:29:25.929Z,8.21
2023-02-11T16:34:28.439Z,8.07
2023-02-11T16:39:30.117Z,8.03
2023-02-11T16:44:35.617Z,7.90
2023-02-11T16:49:40.849Z,7.91
2023-02-11T16:54:42.514Z,7.75
2023-02-11T16:59:44.628Z,7.69
2023-02-11T17:04:46.819Z,7.56
2023-02-11T17:09:48.388Z,7.52
2023-02-11T17:14:50.900Z,7.37
2023-02-11T17:19:52.452Z,7.28
2023-02-11T17:24:56.264Z,7.24
2023-02-11T17:30:00.907Z,7.15
2023-02-11T17:35:02.482Z,7.08
2023-02-11T17:40:04.177Z,7.01
2023-02-11T17:45:06.489Z,6.96
2023-02-11T17:50:10.189Z,7.00
2023-02-11T17:55:13.026Z,6.97
2023-02-11T18:00:15.231Z,6.96
2023-02-11T18:05:16.733Z,6.86
2023-02-11T18:10:19.064Z,6.84
2023-02-11T18:15:22.539Z,6.83
2023-02-11T18:20:24.158Z,6.77
2023-02-11T18:25:25.719Z,6.68
2023-02-11T18:30:28.000Z,6.59
2023-02-11T18:35:29.709Z,6.56
2023-02-11T18:40:31.967Z,6.43
2023-02-11T18:45:33.596Z,6.32
2023-02-11T18:50:35.174Z,6.40
2023-02-11T18:55:41.197Z,6.32
2023-02-11T19:00:45.524Z,6.47
2023-02-11T19:05:51.488Z,6.40
2023-02-11T19:10:55.760Z,6.43
2023-02-11T19:15:58.283Z,6.33
2023-02-11T19:21:00.156Z,6.40
2023-02-11T19:26:04.456Z,6.38
2023-02-11T19:31:11.464Z,6.43
2023-02-11T19:36:16.485Z,6.41
2023-02-11T19:41:23.185Z,6.44
2023-02-11T19:46:28.494Z,6.43
2023-02-11T19:51:33.801Z,6.44
2023-02-11T19:56:36.463Z,6.38
2023-02-11T20:01:39.772Z,6.39
2023-02-11T20:06:43.700Z,6.42
2023-02-11T20:11:45.743Z,6.46
2023-02-11T20:16:49.723Z,6.46
2023-02-11T20:21:53.788Z,6.47
2023-02-11T20:26:56.650Z,6.44
2023-02-11T20:31:58.320Z,6.46
2023-02-11T20:37:03.318Z,6.51
2023-02-11T20:42:09.546Z,6.46
2023-02-11T20:47:12.128Z,6.51
2023-02-11T20:52:13.620Z,6.48
2023-02-11T20:57:16.316Z,6.46
2023-02-11T21:02:19.151Z,6.44
2023-02-11T21:07:23.809Z,6.47
2023-02-11T21:12:25.294Z,6.45
2023-02-11T21:17:27.521Z,6.48
2023-02-11T21:22:36.289Z,6.50
2023-02-11T21:27:38.281Z,6.49
2023-02-11T21:32:39.756Z,6.51
2023-02-11T21:37:41.274Z,6.51
2023-02-11T21:42:42.963Z,6.49
2023-02-11T21:47:44.437Z,6.49
2023-02-11T21:52:47.099Z,6.48
2023-02-11T21:57:48.729Z,6.52
2023-02-11T22:02:50.542Z,6.49
2023-02-11T22:07:52.092Z,6.52
2023-02-11T22:12:53.621Z,6.46
2023-02-11T22:17:55.324Z,6.46
2023-02-11T22:22:59.763Z,6.48
2023-02-11T22:28:02.547Z,6.45
2023-02-11T22:33:08.721Z,6.50
2023-02-11T22:38:11.185Z,6.43
2023-02-11T22:43:13.846Z,6.44
2023-02-11T22:48:15.441Z,6.44
2023-02-11T22:53:20.279Z,6.40
2023-02-11T22:58:22.046Z,6.46
2023-02-11T23:03:23.482Z,6.49
2023-02-11T23:08:28.587Z,6.46
2023-02-11T23:13:30.073Z,6.46
2023-02-11T23:18:35.494Z,6.50
2023-02-11T23:23:37.054Z,6.47
2023-02-11T23:28:39.441Z,6.49
2023-02-11T23:33:40.848Z,6.49
2023-02-11T23:38:42.626Z,6.51
2023-02-11T23:43:51.170Z,6.50
2023-02-11T23:48:53.271Z,6.45
2023-02-11T23:53:56.233Z,6.47
2023-02-11T23:58:58.911Z,6.43
